sensor_id;sensor_type;location;lat;lon;timestamp;P1;durP1;ratioP1;P2;durP2;ratioP2
35795;SDS011;21916;52.428;13.302;2022-07-11T00:02:04;9.05;;;1.05;;
35795;SDS011;21916;52.428;13.302;2022-07-11T00:04:32;8.38;;;1.75;;
35795;SDS011;21916;52.428;13.302;2022-07-11T00:06:58;5.35;;;1.58;;
35795;SDS011;21916;52.428;13.302;2022-07-11T00:09:25;9.63;;;1.40;;
35795;SDS011;21916;52.428;13.302;2022-07-11T00:11:51;5.38;;;1.30;;
35795;SDS011;21916;52.428;13.302;2022-07-11T00:14:18;7.38;;;2.00;;
35795;SDS011;21916;52.428;13.302;2022-07-11T00:16:44;6.75;;;1.55;;
35795;SDS011;21916;52.428;13.302;2022-07-11T00:19:10;8.02;;;1.65;;
35795;SDS011;21916;52.428;13.302;2022-07-11T00:21:36;6.65;;;1.10;;
35795;SDS011;21916;52.428;13.302;2022-07-11T00:24:03;9.13;;;1.60;;
35795;SDS011;21916;52.428;13.302;2022-07-11T00:26:29;7.47;;;2.03;;
35795;SDS011;21916;52.428;13.302;2022-07-11T00:28:55;4.05;;;1.10;;
35795;SDS011;21916;52.428;13.302;2022-07-11T00:31:21;7.53;;;1.30;;
35795;SDS011;21916;52.428;13.302;2022-07-11T00:33:47;5.72;;;1.10;;
35795;SDS011;21916;52.428;13.302;2022-07-11T00:36:14;8.85;;;1.42;;
35795;SDS011;21916;52.428;13.302;2022-07-11T00:38:40;5.82;;;1.02;;
35795;SDS011;21916;52.428;13.302;2022-07-11T00:41:06;6.15;;;1.30;;
35795;SDS011;21916;52.428;13.302;2022-07-11T00:43:36;8.55;;;1.75;;
35795;SDS011;21916;52.428;13.302;2022-07-11T00:46:07;5.03;;;1.38;;
35795;SDS011;21916;52.428;13.302;2022-07-11T00:48:34;12.07;;;1.98;;
35795;SDS011;21916;52.428;13.302;2022-07-11T00:51:02;8.25;;;2.42;;
35795;SDS011;21916;52.428;13.302;2022-07-11T00:53:29;4.30;;;1.05;;
35795;SDS011;21916;52.428;13.302;2022-07-11T00:55:55;8.95;;;1.40;;
35795;SDS011;21916;52.428;13.302;2022-07-11T00:58:23;5.95;;;1.77;;
35795;SDS011;21916;52.428;13.302;2022-07-11T01:00:49;8.40;;;1.80;;
35795;SDS011;21916;52.428;13.302;2022-07-11T01:03:15;6.70;;;1.85;;
35795;SDS011;21916;52.428;13.302;2022-07-11T01:05:42;6.55;;;1.75;;
35795;SDS011;21916;52.428;13.302;2022-07-11T01:08:08;7.45;;;1.80;;
35795;SDS011;21916;52.428;13.302;2022-07-11T01:10:34;10.25;;;1.85;;
35795;SDS011;21916;52.428;13.302;2022-07-11T01:13:00;7.75;;;1.77;;
35795;SDS011;21916;52.428;13.302;2022-07-11T01:15:26;10.25;;;1.75;;
35795;SDS011;21916;52.428;13.302;2022-07-11T01:17:53;6.53;;;1.50;;
35795;SDS011;21916;52.428;13.302;2022-07-11T01:20:22;8.60;;;1.50;;
35795;SDS011;21916;52.428;13.302;2022-07-11T01:22:52;7.47;;;1.67;;
35795;SDS011;21916;52.428;13.302;2022-07-11T01:25:19;5.85;;;1.48;;
35795;SDS011;21916;52.428;13.302;2022-07-11T01:28:04;8.30;;;1.67;;
35795;SDS011;21916;52.428;13.302;2022-07-11T01:30:34;8.02;;;1.98;;
35795;SDS011;21916;52.428;13.302;2022-07-11T01:33:00;6.70;;;1.45;;
35795;SDS011;21916;52.428;13.302;2022-07-11T01:35:26;4.68;;;1.25;;
35795;SDS011;21916;52.428;13.302;2022-07-11T01:37:53;6.85;;;1.67;;
35795;SDS011;21916;52.428;13.302;2022-07-11T01:40:19;6.60;;;1.75;;
35795;SDS011;21916;52.428;13.302;2022-07-11T01:42:46;2.53;;;1.17;;
35795;SDS011;21916;52.428;13.302;2022-07-11T01:45:12;5.57;;;1.27;;
35795;SDS011;21916;52.428;13.302;2022-07-11T01:47:39;9.35;;;1.77;;
35795;SDS011;21916;52.428;13.302;2022-07-11T01:50:05;4.10;;;1.30;;
35795;SDS011;21916;52.428;13.302;2022-07-11T01:52:31;10.00;;;1.50;;
35795;SDS011;21916;52.428;13.302;2022-07-11T01:54:58;7.15;;;1.45;;
35795;SDS011;21916;52.428;13.302;2022-07-11T01:57:23;10.65;;;1.52;;
35795;SDS011;21916;52.428;13.302;2022-07-11T01:59:50;6.13;;;1.20;;
35795;SDS011;21916;52.428;13.302;2022-07-11T02:02:16;7.15;;;2.67;;
35795;SDS011;21916;52.428;13.302;2022-07-11T02:04:42;10.50;;;1.70;;
35795;SDS011;21916;52.428;13.302;2022-07-11T02:07:08;7.40;;;1.85;;
35795;SDS011;21916;52.428;13.302;2022-07-11T02:09:37;4.85;;;1.30;;
35795;SDS011;21916;52.428;13.302;2022-07-11T02:12:04;6.95;;;1.70;;
35795;SDS011;21916;52.428;13.302;2022-07-11T02:14:31;8.70;;;1.90;;
35795;SDS011;21916;52.428;13.302;2022-07-11T02:16:57;7.47;;;1.42;;
35795;SDS011;21916;52.428;13.302;2022-07-11T02:19:24;12.52;;;2.45;;
35795;SDS011;21916;52.428;13.302;2022-07-11T02:21:49;7.60;;;1.60;;
35795;SDS011;21916;52.428;13.302;2022-07-11T02:24:15;5.65;;;1.45;;
35795;SDS011;21916;52.428;13.302;2022-07-11T02:26:41;8.73;;;2.05;;
35795;SDS011;21916;52.428;13.302;2022-07-11T02:29:07;8.90;;;2.05;;
35795;SDS011;21916;52.428;13.302;2022-07-11T02:31:33;7.13;;;1.75;;
35795;SDS011;21916;52.428;13.302;2022-07-11T02:33:59;7.53;;;2.60;;
35795;SDS011;21916;52.428;13.302;2022-07-11T02:36:25;7.45;;;2.00;;
35795;SDS011;21916;52.428;13.302;2022-07-11T02:38:51;9.43;;;2.00;;
35795;SDS011;21916;52.428;13.302;2022-07-11T02:41:17;6.45;;;1.83;;
35795;SDS011;21916;52.428;13.302;2022-07-11T02:43:43;4.43;;;1.92;;
35795;SDS011;21916;52.428;13.302;2022-07-11T02:46:09;11.20;;;1.45;;
35795;SDS011;21916;52.428;13.302;2022-07-11T02:48:35;10.55;;;2.72;;
35795;SDS011;21916;52.428;13.302;2022-07-11T02:51:01;7.70;;;2.65;;
35795;SDS011;21916;52.428;13.302;2022-07-11T02:53:27;8.38;;;1.60;;
35795;SDS011;21916;52.428;13.302;2022-07-11T02:55:53;8.23;;;1.80;;
35795;SDS011;21916;52.428;13.302;2022-07-11T02:58:19;8.32;;;1.73;;
35795;SDS011;21916;52.428;13.302;2022-07-11T03:00:45;3.83;;;1.67;;
35795;SDS011;21916;52.428;13.302;2022-07-11T03:03:11;9.23;;;2.78;;
35795;SDS011;21916;52.428;13.302;2022-07-11T03:05:37;9.10;;;1.77;;
35795;SDS011;21916;52.428;13.302;2022-07-11T03:08:03;10.57;;;2.00;;
35795;SDS011;21916;52.428;13.302;2022-07-11T03:10:29;7.65;;;2.03;;
35795;SDS011;21916;52.428;13.302;2022-07-11T03:12:55;8.38;;;2.25;;
35795;SDS011;21916;52.428;13.302;2022-07-11T03:15:21;10.73;;;2.17;;
35795;SDS011;21916;52.428;13.302;2022-07-11T03:17:47;9.95;;;2.15;;
35795;SDS011;21916;52.428;13.302;2022-07-11T03:20:15;6.72;;;2.08;;
35795;SDS011;21916;52.428;13.302;2022-07-11T03:22:41;7.90;;;1.77;;
35795;SDS011;21916;52.428;13.302;2022-07-11T03:25:07;8.77;;;2.33;;
35795;SDS011;21916;52.428;13.302;2022-07-11T03:27:34;12.40;;;2.35;;
35795;SDS011;21916;52.428;13.302;2022-07-11T03:29:59;6.13;;;1.38;;
35795;SDS011;21916;52.428;13.302;2022-07-11T03:32:28;8.75;;;2.28;;
35795;SDS011;21916;52.428;13.302;2022-07-11T03:34:54;9.13;;;2.55;;
35795;SDS011;21916;52.428;13.302;2022-07-11T03:37:39;13.77;;;2.20;;
35795;SDS011;21916;52.428;13.302;2022-07-11T03:40:06;5.75;;;1.88;;
35795;SDS011;21916;52.428;13.302;2022-07-11T03:42:32;6.93;;;1.83;;
35795;SDS011;21916;52.428;13.302;2022-07-11T03:44:58;7.85;;;1.80;;
35795;SDS011;21916;52.428;13.302;2022-07-11T03:47:24;9.98;;;2.15;;
35795;SDS011;21916;52.428;13.302;2022-07-11T03:49:50;9.27;;;1.90;;
35795;SDS011;21916;52.428;13.302;2022-07-11T03:52:16;8.68;;;2.33;;
35795;SDS011;21916;52.428;13.302;2022-07-11T03:54:42;6.78;;;1.85;;
35795;SDS011;21916;52.428;13.302;2022-07-11T03:57:08;7.30;;;2.17;;
35795;SDS011;21916;52.428;13.302;2022-07-11T03:59:34;7.88;;;1.92;;
35795;SDS011;21916;52.428;13.302;2022-07-11T04:02:00;5.97;;;1.83;;
35795;SDS011;21916;52.428;13.302;2022-07-11T04:04:34;5.95;;;2.10;;
35795;SDS011;21916;52.428;13.302;2022-07-11T04:07:00;9.65;;;2.22;;
35795;SDS011;21916;52.428;13.302;2022-07-11T04:09:26;6.47;;;1.88;;
35795;SDS011;21916;52.428;13.302;2022-07-11T04:11:52;7.00;;;1.70;;
35795;SDS011;21916;52.428;13.302;2022-07-11T04:14:18;17.23;;;3.60;;
35795;SDS011;21916;52.428;13.302;2022-07-11T04:16:43;7.40;;;1.75;;
35795;SDS011;21916;52.428;13.302;2022-07-11T04:19:09;6.93;;;2.58;;
35795;SDS011;21916;52.428;13.302;2022-07-11T04:21:36;11.75;;;2.60;;
35795;SDS011;21916;52.428;13.302;2022-07-11T04:24:02;3.55;;;1.58;;
35795;SDS011;21916;52.428;13.302;2022-07-11T04:26:30;10.52;;;2.15;;
35795;SDS011;21916;52.428;13.302;2022-07-11T04:28:56;6.38;;;1.70;;
35795;SDS011;21916;52.428;13.302;2022-07-11T04:31:22;9.77;;;2.42;;
35795;SDS011;21916;52.428;13.302;2022-07-11T04:33:48;8.20;;;2.15;;
35795;SDS011;21916;52.428;13.302;2022-07-11T04:36:14;11.88;;;3.00;;
35795;SDS011;21916;52.428;13.302;2022-07-11T04:38:42;7.35;;;1.83;;
35795;SDS011;21916;52.428;13.302;2022-07-11T04:41:09;8.10;;;2.13;;
35795;SDS011;21916;52.428;13.302;2022-07-11T04:43:35;8.75;;;1.83;;
35795;SDS011;21916;52.428;13.302;2022-07-11T04:46:03;4.18;;;1.40;;
35795;SDS011;21916;52.428;13.302;2022-07-11T04:48:31;7.88;;;2.03;;
35795;SDS011;21916;52.428;13.302;2022-07-11T04:51:05;9.43;;;2.20;;
35795;SDS011;21916;52.428;13.302;2022-07-11T04:53:32;9.55;;;2.17;;
35795;SDS011;21916;52.428;13.302;2022-07-11T04:55:58;7.43;;;1.77;;
35795;SDS011;21916;52.428;13.302;2022-07-11T04:58:24;17.35;;;2.88;;
35795;SDS011;21916;52.428;13.302;2022-07-11T05:00:50;9.60;;;2.38;;
35795;SDS011;21916;52.428;13.302;2022-07-11T05:03:16;5.72;;;1.55;;
35795;SDS011;21916;52.428;13.302;2022-07-11T05:05:44;6.07;;;1.30;;
35795;SDS011;21916;52.428;13.302;2022-07-11T05:08:10;9.57;;;1.70;;
35795;SDS011;21916;52.428;13.302;2022-07-11T05:10:36;7.63;;;1.92;;
35795;SDS011;21916;52.428;13.302;2022-07-11T05:13:02;7.18;;;1.80;;
35795;SDS011;21916;52.428;13.302;2022-07-11T05:15:28;6.45;;;1.63;;
35795;SDS011;21916;52.428;13.302;2022-07-11T05:17:54;8.00;;;1.65;;
35795;SDS011;21916;52.428;13.302;2022-07-11T05:20:20;8.82;;;1.92;;
35795;SDS011;21916;52.428;13.302;2022-07-11T05:22:58;8.90;;;1.90;;
35795;SDS011;21916;52.428;13.302;2022-07-11T05:25:24;12.23;;;2.17;;
35795;SDS011;21916;52.428;13.302;2022-07-11T05:27:50;10.85;;;1.65;;
35795;SDS011;21916;52.428;13.302;2022-07-11T05:30:16;6.65;;;1.73;;
35795;SDS011;21916;52.428;13.302;2022-07-11T05:32:42;5.82;;;1.80;;
35795;SDS011;21916;52.428;13.302;2022-07-11T05:35:08;5.88;;;1.90;;
35795;SDS011;21916;52.428;13.302;2022-07-11T05:37:34;6.70;;;2.10;;
35795;SDS011;21916;52.428;13.302;2022-07-11T05:40:00;3.33;;;1.85;;
35795;SDS011;21916;52.428;13.302;2022-07-11T05:42:26;5.78;;;2.17;;
35795;SDS011;21916;52.428;13.302;2022-07-11T05:44:52;7.38;;;1.73;;
35795;SDS011;21916;52.428;13.302;2022-07-11T05:47:18;8.48;;;2.67;;
35795;SDS011;21916;52.428;13.302;2022-07-11T05:49:44;7.95;;;1.20;;
35795;SDS011;21916;52.428;13.302;2022-07-11T05:52:10;5.75;;;1.98;;
35795;SDS011;21916;52.428;13.302;2022-07-11T05:54:36;9.48;;;2.60;;
35795;SDS011;21916;52.428;13.302;2022-07-11T05:57:02;10.68;;;2.03;;
35795;SDS011;21916;52.428;13.302;2022-07-11T05:59:28;5.38;;;1.75;;
35795;SDS011;21916;52.428;13.302;2022-07-11T06:01:54;10.85;;;2.00;;
35795;SDS011;21916;52.428;13.302;2022-07-11T06:04:20;14.77;;;2.58;;
35795;SDS011;21916;52.428;13.302;2022-07-11T06:06:46;9.30;;;2.72;;
35795;SDS011;21916;52.428;13.302;2022-07-11T06:09:12;7.25;;;1.67;;
35795;SDS011;21916;52.428;13.302;2022-07-11T06:11:39;9.73;;;1.98;;
35795;SDS011;21916;52.428;13.302;2022-07-11T06:14:05;3.80;;;2.08;;
35795;SDS011;21916;52.428;13.302;2022-07-11T06:16:32;6.38;;;2.20;;
35795;SDS011;21916;52.428;13.302;2022-07-11T06:18:58;4.82;;;1.67;;
35795;SDS011;21916;52.428;13.302;2022-07-11T06:21:24;6.60;;;1.70;;
35795;SDS011;21916;52.428;13.302;2022-07-11T06:23:50;7.43;;;1.70;;
35795;SDS011;21916;52.428;13.302;2022-07-11T06:26:17;6.60;;;1.20;;
35795;SDS011;21916;52.428;13.302;2022-07-11T06:28:43;10.25;;;2.33;;
35795;SDS011;21916;52.428;13.302;2022-07-11T06:31:09;7.43;;;2.22;;
35795;SDS011;21916;52.428;13.302;2022-07-11T06:33:35;9.45;;;1.98;;
35795;SDS011;21916;52.428;13.302;2022-07-11T06:36:02;10.60;;;2.20;;
35795;SDS011;21916;52.428;13.302;2022-07-11T06:38:29;6.55;;;1.73;;
35795;SDS011;21916;52.428;13.302;2022-07-11T06:40:56;7.75;;;2.05;;
35795;SDS011;21916;52.428;13.302;2022-07-11T06:43:22;12.02;;;2.75;;
35795;SDS011;21916;52.428;13.302;2022-07-11T06:45:48;7.30;;;2.00;;
35795;SDS011;21916;52.428;13.302;2022-07-11T06:48:14;7.85;;;1.60;;
35795;SDS011;21916;52.428;13.302;2022-07-11T06:50:40;5.15;;;1.60;;
35795;SDS011;21916;52.428;13.302;2022-07-11T06:53:07;7.45;;;1.67;;
35795;SDS011;21916;52.428;13.302;2022-07-11T06:55:33;10.15;;;1.98;;
35795;SDS011;21916;52.428;13.302;2022-07-11T06:57:59;8.95;;;1.90;;
35795;SDS011;21916;52.428;13.302;2022-07-11T07:00:25;8.70;;;2.17;;
35795;SDS011;21916;52.428;13.302;2022-07-11T07:02:54;4.55;;;1.65;;
35795;SDS011;21916;52.428;13.302;2022-07-11T07:05:22;6.25;;;1.73;;
35795;SDS011;21916;52.428;13.302;2022-07-11T07:07:49;4.25;;;1.85;;
35795;SDS011;21916;52.428;13.302;2022-07-11T07:10:16;6.68;;;2.50;;
35795;SDS011;21916;52.428;13.302;2022-07-11T07:12:45;5.25;;;2.58;;
35795;SDS011;21916;52.428;13.302;2022-07-11T07:15:11;11.95;;;2.15;;
35795;SDS011;21916;52.428;13.302;2022-07-11T07:17:37;10.68;;;2.47;;
35795;SDS011;21916;52.428;13.302;2022-07-11T07:20:04;7.18;;;1.63;;
35795;SDS011;21916;52.428;13.302;2022-07-11T07:22:34;5.93;;;1.40;;
35795;SDS011;21916;52.428;13.302;2022-07-11T07:25:00;11.15;;;2.53;;
35795;SDS011;21916;52.428;13.302;2022-07-11T07:27:26;8.95;;;1.85;;
35795;SDS011;21916;52.428;13.302;2022-07-11T07:29:52;5.25;;;1.70;;
35795;SDS011;21916;52.428;13.302;2022-07-11T07:32:18;8.82;;;2.15;;
35795;SDS011;21916;52.428;13.302;2022-07-11T07:34:44;5.05;;;1.38;;
35795;SDS011;21916;52.428;13.302;2022-07-11T07:37:10;11.20;;;2.30;;
35795;SDS011;21916;52.428;13.302;2022-07-11T07:39:36;8.95;;;1.65;;
35795;SDS011;21916;52.428;13.302;2022-07-11T07:42:02;11.35;;;1.92;;
35795;SDS011;21916;52.428;13.302;2022-07-11T07:44:28;8.75;;;1.77;;
35795;SDS011;21916;52.428;13.302;2022-07-11T07:46:54;7.13;;;1.60;;
35795;SDS011;21916;52.428;13.302;2022-07-11T07:49:19;9.15;;;1.70;;
35795;SDS011;21916;52.428;13.302;2022-07-11T07:51:45;5.60;;;1.38;;
35795;SDS011;21916;52.428;13.302;2022-07-11T07:54:37;14.70;;;1.80;;
35795;SDS011;21916;52.428;13.302;2022-07-11T07:57:04;9.25;;;1.83;;
35795;SDS011;21916;52.428;13.302;2022-07-11T07:59:30;6.97;;;1.67;;
35795;SDS011;21916;52.428;13.302;2022-07-11T08:01:56;6.47;;;1.60;;
35795;SDS011;21916;52.428;13.302;2022-07-11T08:04:21;9.10;;;2.10;;
35795;SDS011;21916;52.428;13.302;2022-07-11T08:06:48;7.35;;;1.73;;
35795;SDS011;21916;52.428;13.302;2022-07-11T08:09:13;8.52;;;2.17;;
35795;SDS011;21916;52.428;13.302;2022-07-11T08:11:40;5.30;;;1.90;;
35795;SDS011;21916;52.428;13.302;2022-07-11T08:14:06;12.18;;;2.47;;
35795;SDS011;21916;52.428;13.302;2022-07-11T08:16:35;4.32;;;1.10;;
35795;SDS011;21916;52.428;13.302;2022-07-11T08:19:24;7.00;;;1.65;;
35795;SDS011;21916;52.428;13.302;2022-07-11T08:21:50;8.18;;;1.98;;
35795;SDS011;21916;52.428;13.302;2022-07-11T08:24:16;6.65;;;1.42;;
35795;SDS011;21916;52.428;13.302;2022-07-11T08:26:42;6.28;;;1.60;;
35795;SDS011;21916;52.428;13.302;2022-07-11T08:29:07;5.53;;;1.33;;
35795;SDS011;21916;52.428;13.302;2022-07-11T08:31:33;8.38;;;1.50;;
35795;SDS011;21916;52.428;13.302;2022-07-11T08:34:00;8.13;;;2.08;;
35795;SDS011;21916;52.428;13.302;2022-07-11T08:36:27;7.07;;;1.13;;
35795;SDS011;21916;52.428;13.302;2022-07-11T08:39:00;4.67;;;1.30;;
35795;SDS011;21916;52.428;13.302;2022-07-11T08:41:26;6.03;;;1.40;;
35795;SDS011;21916;52.428;13.302;2022-07-11T08:43:52;6.25;;;1.50;;
35795;SDS011;21916;52.428;13.302;2022-07-11T08:46:19;7.68;;;1.60;;
35795;SDS011;21916;52.428;13.302;2022-07-11T08:48:45;8.77;;;1.60;;
35795;SDS011;21916;52.428;13.302;2022-07-11T08:51:12;4.68;;;1.50;;
35795;SDS011;21916;52.428;13.302;2022-07-11T08:53:39;6.80;;;1.67;;
35795;SDS011;21916;52.428;13.302;2022-07-11T08:56:08;5.90;;;1.63;;
35795;SDS011;21916;52.428;13.302;2022-07-11T08:58:46;4.25;;;1.30;;
35795;SDS011;21916;52.428;13.302;2022-07-11T09:01:16;5.38;;;1.42;;
35795;SDS011;21916;52.428;13.302;2022-07-11T09:03:42;7.88;;;1.73;;
35795;SDS011;21916;52.428;13.302;2022-07-11T09:06:09;8.35;;;1.58;;
35795;SDS011;21916;52.428;13.302;2022-07-11T09:08:36;4.00;;;1.27;;
35795;SDS011;21916;52.428;13.302;2022-07-11T09:11:06;5.90;;;1.60;;
35795;SDS011;21916;52.428;13.302;2022-07-11T09:13:32;4.28;;;1.00;;
35795;SDS011;21916;52.428;13.302;2022-07-11T09:16:01;8.85;;;1.45;;
35795;SDS011;21916;52.428;13.302;2022-07-11T09:18:33;11.10;;;1.65;;
35795;SDS011;21916;52.428;13.302;2022-07-11T09:21:06;7.80;;;1.50;;
35795;SDS011;21916;52.428;13.302;2022-07-11T09:24:00;4.43;;;1.52;;
35795;SDS011;21916;52.428;13.302;2022-07-11T09:26:48;6.75;;;1.50;;
35795;SDS011;21916;52.428;13.302;2022-07-11T09:31:43;5.70;;;1.27;;
35795;SDS011;21916;52.428;13.302;2022-07-11T09:34:13;8.88;;;1.40;;
35795;SDS011;21916;52.428;13.302;2022-07-11T09:39:17;4.15;;;1.10;;
35795;SDS011;21916;52.428;13.302;2022-07-11T09:41:45;7.22;;;1.50;;
35795;SDS011;21916;52.428;13.302;2022-07-11T09:44:19;4.20;;;1.27;;
35795;SDS011;21916;52.428;13.302;2022-07-11T09:46:49;7.47;;;1.85;;
35795;SDS011;21916;52.428;13.302;2022-07-11T09:49:17;7.22;;;1.30;;
35795;SDS011;21916;52.428;13.302;2022-07-11T09:52:11;6.15;;;1.30;;
35795;SDS011;21916;52.428;13.302;2022-07-11T09:54:51;2.58;;;1.05;;
35795;SDS011;21916;52.428;13.302;2022-07-11T09:57:17;4.57;;;1.50;;
35795;SDS011;21916;52.428;13.302;2022-07-11T09:59:43;9.52;;;1.83;;
35795;SDS011;21916;52.428;13.302;2022-07-11T10:02:19;7.20;;;1.35;;
35795;SDS011;21916;52.428;13.302;2022-07-11T10:04:46;5.38;;;1.60;;
35795;SDS011;21916;52.428;13.302;2022-07-11T10:07:12;5.10;;;1.00;;
35795;SDS011;21916;52.428;13.302;2022-07-11T10:09:38;8.05;;;1.35;;
35795;SDS011;21916;52.428;13.302;2022-07-11T10:12:04;6.18;;;1.55;;
35795;SDS011;21916;52.428;13.302;2022-07-11T10:14:30;4.80;;;1.10;;
35795;SDS011;21916;52.428;13.302;2022-07-11T10:17:05;3.42;;;0.98;;
35795;SDS011;21916;52.428;13.302;2022-07-11T10:22:14;3.65;;;1.20;;
35795;SDS011;21916;52.428;13.302;2022-07-11T10:24:47;7.75;;;1.58;;
35795;SDS011;21916;52.428;13.302;2022-07-11T10:27:24;6.68;;;1.35;;
35795;SDS011;21916;52.428;13.302;2022-07-11T10:29:55;5.93;;;1.20;;
35795;SDS011;21916;52.428;13.302;2022-07-11T10:32:20;2.10;;;0.93;;
35795;SDS011;21916;52.428;13.302;2022-07-11T10:35:04;5.50;;;0.98;;
35795;SDS011;21916;52.428;13.302;2022-07-11T10:37:46;8.20;;;1.10;;
35795;SDS011;21916;52.428;13.302;2022-07-11T10:40:12;5.68;;;1.25;;
35795;SDS011;21916;52.428;13.302;2022-07-11T10:42:39;4.80;;;1.02;;
35795;SDS011;21916;52.428;13.302;2022-07-11T10:45:08;5.72;;;0.88;;
35795;SDS011;21916;52.428;13.302;2022-07-11T10:53:09;4.53;;;1.27;;
35795;SDS011;21916;52.428;13.302;2022-07-11T10:55:36;5.10;;;1.00;;
35795;SDS011;21916;52.428;13.302;2022-07-11T10:58:08;3.20;;;1.48;;
35795;SDS011;21916;52.428;13.302;2022-07-11T11:00:44;4.72;;;1.00;;
35795;SDS011;21916;52.428;13.302;2022-07-11T11:03:11;2.28;;;0.80;;
35795;SDS011;21916;52.428;13.302;2022-07-11T11:16:40;4.82;;;0.90;;
35795;SDS011;21916;52.428;13.302;2022-07-11T11:22:29;4.10;;;0.82;;
35795;SDS011;21916;52.428;13.302;2022-07-11T11:24:56;4.38;;;1.08;;
35795;SDS011;21916;52.428;13.302;2022-07-11T11:27:23;2.90;;;1.23;;
35795;SDS011;21916;52.428;13.302;2022-07-11T11:29:51;2.80;;;0.60;;
35795;SDS011;21916;52.428;13.302;2022-07-11T11:32:18;2.10;;;0.60;;
35795;SDS011;21916;52.428;13.302;2022-07-11T11:34:45;3.05;;;0.80;;
35795;SDS011;21916;52.428;13.302;2022-07-11T11:37:12;1.75;;;0.80;;
35795;SDS011;21916;52.428;13.302;2022-07-11T11:40:02;3.00;;;0.90;;
35795;SDS011;21916;52.428;13.302;2022-07-11T11:42:28;1.83;;;0.73;;
35795;SDS011;21916;52.428;13.302;2022-07-11T11:45:01;1.88;;;0.90;;
35795;SDS011;21916;52.428;13.302;2022-07-11T11:47:29;3.38;;;1.00;;
35795;SDS011;21916;52.428;13.302;2022-07-11T11:49:56;2.70;;;0.82;;
35795;SDS011;21916;52.428;13.302;2022-07-11T11:52:22;3.47;;;0.95;;
35795;SDS011;21916;52.428;13.302;2022-07-11T11:54:53;2.25;;;0.75;;
35795;SDS011;21916;52.428;13.302;2022-07-11T11:57:21;1.85;;;0.70;;
35795;SDS011;21916;52.428;13.302;2022-07-11T11:59:49;3.15;;;0.70;;
35795;SDS011;21916;52.428;13.302;2022-07-11T12:02:26;2.42;;;0.73;;
35795;SDS011;21916;52.428;13.302;2022-07-11T12:04:57;2.80;;;0.55;;
35795;SDS011;21916;52.428;13.302;2022-07-11T12:07:25;3.30;;;0.88;;
35795;SDS011;21916;52.428;13.302;2022-07-11T12:09:53;3.13;;;0.73;;
35795;SDS011;21916;52.428;13.302;2022-07-11T12:12:25;5.38;;;0.82;;
35795;SDS011;21916;52.428;13.302;2022-07-11T12:15:33;3.92;;;1.13;;
35795;SDS011;21916;52.428;13.302;2022-07-11T12:18:21;2.38;;;0.80;;
35795;SDS011;21916;52.428;13.302;2022-07-11T12:20:47;4.88;;;0.90;;
35795;SDS011;21916;52.428;13.302;2022-07-11T12:23:15;3.53;;;0.80;;
35795;SDS011;21916;52.428;13.302;2022-07-11T12:25:42;3.97;;;0.60;;
35795;SDS011;21916;52.428;13.302;2022-07-11T12:28:12;2.45;;;0.50;;
35795;SDS011;21916;52.428;13.302;2022-07-11T12:30:39;4.75;;;1.20;;
35795;SDS011;21916;52.428;13.302;2022-07-11T12:33:06;2.13;;;0.70;;
35795;SDS011;21916;52.428;13.302;2022-07-11T12:35:34;3.00;;;0.90;;
35795;SDS011;21916;52.428;13.302;2022-07-11T12:38:09;4.68;;;0.80;;
35795;SDS011;21916;52.428;13.302;2022-07-11T12:40:35;3.47;;;0.88;;
35795;SDS011;21916;52.428;13.302;2022-07-11T12:43:01;0.88;;;0.50;;
35795;SDS011;21916;52.428;13.302;2022-07-11T12:46:00;3.92;;;0.80;;
35795;SDS011;21916;52.428;13.302;2022-07-11T12:48:37;3.03;;;0.98;;
35795;SDS011;21916;52.428;13.302;2022-07-11T12:51:04;3.88;;;0.70;;
35795;SDS011;21916;52.428;13.302;2022-07-11T12:53:30;2.60;;;0.60;;
35795;SDS011;21916;52.428;13.302;2022-07-11T12:55:56;3.47;;;0.95;;
35795;SDS011;21916;52.428;13.302;2022-07-11T12:58:22;3.08;;;0.70;;
35795;SDS011;21916;52.428;13.302;2022-07-11T13:00:59;2.95;;;0.70;;
35795;SDS011;21916;52.428;13.302;2022-07-11T13:03:28;2.80;;;0.68;;
35795;SDS011;21916;52.428;13.302;2022-07-11T13:06:01;3.92;;;0.57;;
35795;SDS011;21916;52.428;13.302;2022-07-11T13:08:29;2.53;;;0.50;;
35795;SDS011;21916;52.428;13.302;2022-07-11T13:11:15;2.97;;;0.55;;
35795;SDS011;21916;52.428;13.302;2022-07-11T13:13:45;1.27;;;0.50;;
35795;SDS011;21916;52.428;13.302;2022-07-11T13:16:12;2.83;;;0.60;;
35795;SDS011;21916;52.428;13.302;2022-07-11T13:18:48;1.88;;;0.73;;
35795;SDS011;21916;52.428;13.302;2022-07-11T13:21:14;1.33;;;0.50;;
35795;SDS011;21916;52.428;13.302;2022-07-11T13:23:41;1.70;;;0.70;;
35795;SDS011;21916;52.428;13.302;2022-07-11T13:26:07;0.73;;;0.40;;
35795;SDS011;21916;52.428;13.302;2022-07-11T13:28:34;3.88;;;0.70;;
35795;SDS011;21916;52.428;13.302;2022-07-11T13:31:00;3.00;;;0.77;;
35795;SDS011;21916;52.428;13.302;2022-07-11T13:33:26;2.38;;;0.52;;
35795;SDS011;21916;52.428;13.302;2022-07-11T13:35:52;3.13;;;0.80;;
35795;SDS011;21916;52.428;13.302;2022-07-11T13:38:18;2.50;;;0.80;;
35795;SDS011;21916;52.428;13.302;2022-07-11T13:40:45;3.30;;;0.60;;
35795;SDS011;21916;52.428;13.302;2022-07-11T13:43:12;1.67;;;0.60;;
35795;SDS011;21916;52.428;13.302;2022-07-11T13:45:39;3.20;;;0.50;;
35795;SDS011;21916;52.428;13.302;2022-07-11T13:48:05;2.17;;;0.50;;
35795;SDS011;21916;52.428;13.302;2022-07-11T13:50:32;2.75;;;0.60;;
35795;SDS011;21916;52.428;13.302;2022-07-11T13:52:58;1.40;;;0.70;;
35795;SDS011;21916;52.428;13.302;2022-07-11T13:55:24;2.13;;;0.57;;
35795;SDS011;21916;52.428;13.302;2022-07-11T13:57:54;1.92;;;0.50;;
35795;SDS011;21916;52.428;13.302;2022-07-11T14:00:25;1.15;;;0.40;;
35795;SDS011;21916;52.428;13.302;2022-07-11T14:02:54;1.70;;;0.60;;
35795;SDS011;21916;52.428;13.302;2022-07-11T14:05:20;2.75;;;0.80;;
35795;SDS011;21916;52.428;13.302;2022-07-11T14:07:46;2.45;;;0.60;;
35795;SDS011;21916;52.428;13.302;2022-07-11T14:10:13;1.63;;;0.52;;
35795;SDS011;21916;52.428;13.302;2022-07-11T14:12:39;2.08;;;0.52;;
35795;SDS011;21916;52.428;13.302;2022-07-11T14:15:06;1.50;;;0.50;;
35795;SDS011;21916;52.428;13.302;2022-07-11T14:17:34;1.67;;;0.50;;
35795;SDS011;21916;52.428;13.302;2022-07-11T14:20:04;1.35;;;0.43;;
35795;SDS011;21916;52.428;13.302;2022-07-11T14:22:31;2.13;;;0.52;;
35795;SDS011;21916;52.428;13.302;2022-07-11T14:24:57;1.80;;;0.45;;
35795;SDS011;21916;52.428;13.302;2022-07-11T14:27:23;1.00;;;0.50;;
35795;SDS011;21916;52.428;13.302;2022-07-11T14:29:49;1.95;;;0.57;;
35795;SDS011;21916;52.428;13.302;2022-07-11T14:32:17;1.27;;;0.50;;
35795;SDS011;21916;52.428;13.302;2022-07-11T14:34:43;3.80;;;0.68;;
35795;SDS011;21916;52.428;13.302;2022-07-11T14:37:09;2.97;;;0.50;;
35795;SDS011;21916;52.428;13.302;2022-07-11T14:39:36;3.63;;;0.60;;
35795;SDS011;21916;52.428;13.302;2022-07-11T14:42:02;1.10;;;0.40;;
35795;SDS011;21916;52.428;13.302;2022-07-11T14:44:28;2.58;;;0.85;;
35795;SDS011;21916;52.428;13.302;2022-07-11T14:46:54;2.70;;;0.85;;
35795;SDS011;21916;52.428;13.302;2022-07-11T14:49:20;1.85;;;0.55;;
35795;SDS011;21916;52.428;13.302;2022-07-11T14:51:46;1.92;;;0.70;;
35795;SDS011;21916;52.428;13.302;2022-07-11T14:54:12;1.15;;;0.50;;
35795;SDS011;21916;52.428;13.302;2022-07-11T14:56:41;2.17;;;0.57;;
35795;SDS011;21916;52.428;13.302;2022-07-11T14:59:07;2.80;;;0.60;;
35795;SDS011;21916;52.428;13.302;2022-07-11T15:01:33;1.27;;;0.50;;
35795;SDS011;21916;52.428;13.302;2022-07-11T15:03:59;1.88;;;0.50;;
35795;SDS011;21916;52.428;13.302;2022-07-11T15:06:28;2.15;;;0.70;;